createdAt,value
2019-03-26T00:00:31.090Z,62.40
2019-03-26T00:01:32.188Z,62.40
2019-03-26T00:02:33.203Z,63.40
2019-03-26T00:03:34.501Z,62.50
2019-03-26T00:04:35.534Z,62.70
2019-03-26T00:05:36.527Z,62.30
2019-03-26T00:06:37.527Z,62.20
2019-03-26T00:07:38.536Z,62.00
2019-03-26T00:08:39.583Z,62.00
2019-03-26T00:09:40.644Z,62.00
2019-03-26T00:10:41.638Z,62.00
2019-03-26T00:11:42.639Z,62.30
2019-03-26T00:12:43.639Z,62.00
2019-03-26T00:13:44.639Z,61.90
2019-03-26T00:15:05.612Z,62.10
2019-03-26T00:16:06.613Z,62.20
2019-03-26T00:17:07.624Z,62.30
2019-03-26T00:18:08.641Z,62.50
2019-03-26T00:19:09.641Z,62.00
2019-03-26T00:20:11.055Z,62.30
2019-03-26T00:21:12.071Z,62.90
2019-03-26T00:22:13.059Z,62.00
2019-03-26T00:23:14.123Z,61.90
2019-03-26T00:24:15.164Z,61.70
2019-03-26T00:25:16.176Z,61.40
2019-03-26T00:26:17.190Z,61.80
2019-03-26T00:27:18.184Z,62.00
2019-03-26T00:28:19.206Z,61.70
2019-03-26T00:29:20.540Z,62.00
2019-03-26T00:30:21.557Z,61.50
2019-03-26T00:31:22.567Z,61.80
2019-03-26T00:32:23.890Z,61.50
2019-03-26T00:33:35.837Z,61.50
2019-03-26T00:34:27.864Z,61.50
2019-03-26T00:35:28.969Z,61.50
2019-03-26T00:36:29.974Z,62.10
2019-03-26T00:37:30.979Z,61.90
2019-03-26T00:38:32.018Z,62.10
2019-03-26T00:39:33.115Z,61.50
2019-03-26T00:40:34.136Z,61.60
2019-03-26T00:41:35.131Z,61.60
2019-03-26T00:42:36.135Z,62.10
2019-03-26T00:43:37.278Z,61.90
2019-03-26T00:44:38.297Z,61.60
2019-03-26T00:45:39.319Z,61.50
2019-03-26T00:46:40.378Z,61.50
2019-03-26T00:47:41.679Z,61.60
2019-03-26T00:48:42.681Z,61.70
2019-03-26T00:49:43.712Z,62.00
2019-03-26T00:50:44.728Z,61.70
2019-03-26T00:51:45.731Z,62.00
2019-03-26T00:52:46.732Z,61.60
2019-03-26T00:53:47.740Z,61.50
2019-03-26T00:54:48.804Z,61.50
2019-03-26T00:55:49.813Z,61.40
2019-03-26T00:56:50.824Z,61.40
2019-03-26T00:57:51.833Z,61.50
2019-03-26T00:58:53.096Z,61.80
2019-03-26T00:59:54.107Z,61.90
2019-03-26T01:00:55.129Z,62.10
2019-03-26T01:01:56.140Z,61.50
2019-03-26T01:02:57.164Z,61.50
2019-03-26T01:03:58.201Z,61.40
2019-03-26T01:04:59.208Z,61.60
2019-03-26T01:06:00.208Z,61.70
2019-03-26T01:07:01.214Z,61.90
2019-03-26T01:08:02.322Z,61.80
2019-03-26T01:09:04.824Z,62.00
2019-03-26T01:10:09.648Z,61.90
2019-03-26T01:11:10.674Z,62.00
2019-03-26T01:12:11.680Z,62.00
2019-03-26T01:13:12.688Z,62.00
2019-03-26T01:14:13.692Z,62.00
2019-03-26T01:15:15.017Z,62.10
2019-03-26T01:16:16.021Z,62.10
2019-03-26T01:17:17.034Z,62.50
2019-03-26T01:18:18.071Z,61.40
2019-03-26T01:19:19.166Z,61.40
2019-03-26T01:20:20.167Z,61.50
2019-03-26T01:21:21.280Z,62.10
2019-03-26T01:22:22.278Z,62.90
2019-03-26T01:23:23.284Z,61.90
2019-03-26T01:24:24.292Z,61.50
2019-03-26T01:25:25.328Z,61.80
2019-03-26T01:26:26.341Z,61.60
2019-03-26T01:27:27.363Z,61.90
2019-03-26T01:28:28.369Z,61.50
2019-03-26T01:29:29.392Z,61.40
2019-03-26T01:30:30.417Z,62.00
2019-03-26T01:31:31.415Z,62.00
2019-03-26T01:32:32.418Z,62.00
2019-03-26T01:33:33.427Z,62.20
2019-03-26T01:34:45.460Z,62.20
2019-03-26T01:35:37.348Z,62.50
2019-03-26T01:36:39.410Z,62.30
2019-03-26T01:37:40.474Z,62.70
2019-03-26T01:38:41.558Z,61.90
2019-03-26T01:39:42.572Z,62.00
2019-03-26T01:40:43.692Z,62.30
2019-03-26T01:41:44.804Z,62.40
2019-03-26T01:42:45.807Z,62.00
2019-03-26T01:43:46.814Z,62.00
2019-03-26T01:44:47.825Z,62.00
2019-03-26T01:45:48.841Z,62.00
2019-03-26T01:46:49.852Z,61.70
2019-03-26T01:47:50.869Z,62.00
2019-03-26T01:48:51.872Z,62.30
2019-03-26T01:49:52.876Z,62.90
2019-03-26T01:50:53.923Z,62.10
2019-03-26T01:51:55.033Z,62.00
2019-03-26T01:52:56.137Z,62.10
2019-03-26T01:53:57.150Z,61.50
2019-03-26T01:54:58.161Z,61.90
2019-03-26T01:55:59.187Z,62.00
2019-03-26T01:57:00.187Z,61.70
2019-03-26T01:58:01.183Z,61.80
2019-03-26T01:59:02.188Z,61.90
2019-03-26T02:00:04.995Z,62.40
2019-03-26T02:01:06.121Z,63.00
2019-03-26T02:02:07.123Z,62.40
2019-03-26T02:03:08.139Z,62.10
2019-03-26T02:04:09.132Z,62.10
2019-03-26T02:05:10.150Z,62.20
2019-03-26T02:06:11.160Z,62.30
2019-03-26T02:07:12.177Z,62.40
2019-03-26T02:08:13.185Z,62.30
2019-03-26T02:09:14.187Z,62.60
2019-03-26T02:10:15.216Z,62.50
2019-03-26T02:11:16.224Z,62.40
2019-03-26T02:12:17.232Z,62.50
2019-03-26T02:13:18.272Z,62.70
2019-03-26T02:14:19.274Z,62.80
2019-03-26T02:15:28.206Z,62.70
2019-03-26T02:16:29.212Z,62.80
2019-03-26T02:17:30.221Z,62.80
2019-03-26T02:18:31.232Z,62.80
2019-03-26T02:19:32.240Z,62.80
2019-03-26T02:20:33.247Z,62.80
2019-03-26T02:21:34.601Z,63.50
2019-03-26T02:22:35.605Z,62.90
2019-03-26T02:23:36.716Z,62.80
2019-03-26T02:24:37.720Z,62.80
2019-03-26T02:25:38.733Z,62.60
2019-03-26T02:26:39.821Z,62.60
2019-03-26T02:27:40.832Z,62.80
2019-03-26T02:28:41.825Z,62.70
2019-03-26T02:29:42.828Z,62.80
2019-03-26T02:30:43.841Z,62.90
2019-03-26T02:31:44.861Z,62.90
2019-03-26T02:32:45.853Z,62.80
2019-03-26T02:33:46.857Z,62.80
2019-03-26T02:34:47.865Z,62.80
2019-03-26T02:35:48.870Z,62.80
2019-03-26T02:36:49.886Z,62.80
2019-03-26T02:37:50.902Z,62.50
2019-03-26T02:38:51.910Z,63.50
2019-03-26T02:39:53.251Z,62.90
2019-03-26T02:40:54.273Z,62.70
2019-03-26T02:41:55.283Z,62.90
2019-03-26T02:42:56.290Z,63.10
2019-03-26T02:43:57.297Z,63.20
2019-03-26T02:44:58.300Z,63.30
2019-03-26T02:45:59.300Z,63.30
2019-03-26T02:47:00.321Z,63.40
2019-03-26T02:48:01.333Z,63.40
2019-03-26T02:49:02.339Z,63.40
2019-03-26T02:50:05.949Z,63.50
2019-03-26T02:51:06.955Z,64.50
2019-03-26T02:52:07.977Z,63.60
2019-03-26T02:53:09.391Z,64.30
2019-03-26T02:54:10.524Z,63.60
2019-03-26T02:55:11.724Z,63.40
2019-03-26T02:56:13.022Z,63.70
2019-03-26T02:57:14.053Z,63.40
2019-03-26T02:58:15.049Z,63.30
2019-03-26T02:59:16.058Z,63.30
2019-03-26T03:00:17.171Z,63.30
2019-03-26T03:01:18.181Z,63.30
2019-03-26T03:02:19.197Z,63.20
2019-03-26T03:03:20.323Z,63.30
2019-03-26T03:04:21.408Z,63.10
2019-03-26T03:05:34.909Z,62.90
2019-03-26T03:06:25.584Z,62.80
2019-03-26T03:07:27.126Z,63.00
2019-03-26T03:08:28.140Z,62.80
2019-03-26T03:09:29.155Z,62.90
2019-03-26T03:10:30.166Z,62.90
2019-03-26T03:11:31.172Z,63.10
2019-03-26T03:12:32.181Z,63.20
2019-03-26T03:13:33.188Z,63.20
2019-03-26T03:14:34.196Z,63.60
2019-03-26T03:15:35.195Z,63.00
2019-03-26T03:16:36.221Z,63.20
2019-03-26T03:17:37.321Z,63.10
2019-03-26T03:18:38.328Z,63.30
2019-03-26T03:19:39.362Z,63.10
2019-03-26T03:20:40.734Z,63.20
2019-03-26T03:21:41.727Z,63.30
2019-03-26T03:22:42.741Z,63.30
2019-03-26T03:23:43.745Z,63.30
2019-03-26T03:24:44.743Z,63.30
2019-03-26T03:25:45.752Z,63.30
2019-03-26T03:26:46.757Z,63.30
2019-03-26T03:27:47.768Z,63.40
2019-03-26T03:28:48.826Z,63.30
2019-03-26T03:29:49.818Z,63.30
2019-03-26T03:30:50.830Z,63.50
2019-03-26T03:31:51.856Z,63.60
2019-03-26T03:32:52.970Z,63.40
2019-03-26T03:33:53.979Z,63.40
2019-03-26T03:34:54.978Z,63.40
2019-03-26T03:35:55.987Z,63.30
2019-03-26T03:36:56.997Z,63.40
2019-03-26T03:37:58.026Z,63.40
2019-03-26T03:38:59.028Z,63.30
2019-03-26T03:40:00.028Z,63.20
2019-03-26T03:41:01.027Z,63.20
2019-03-26T03:42:02.045Z,63.20
2019-03-26T03:43:03.279Z,63.20
2019-03-26T03:44:04.391Z,63.30
2019-03-26T03:45:07.072Z,63.30
2019-03-26T03:46:08.305Z,63.30
2019-03-26T03:47:10.615Z,63.10
2019-03-26T03:48:11.737Z,63.10
2019-03-26T03:49:13.137Z,63.20
2019-03-26T03:50:14.259Z,63.40
2019-03-26T03:51:18.456Z,63.60
2019-03-26T03:52:20.776Z,63.70
2019-03-26T03:53:22.581Z,63.50
2019-03-26T03:54:24.979Z,64.10
2019-03-26T03:55:26.494Z,63.30
2019-03-26T03:56:28.318Z,63.30
2019-03-26T03:57:30.377Z,63.30
2019-03-26T03:58:32.187Z,63.30
2019-03-26T03:59:33.388Z,63.20
2019-03-26T04:00:37.113Z,63.30
2019-03-26T04:01:38.225Z,63.20
2019-03-26T04:02:39.253Z,63.70
2019-03-26T04:03:40.273Z,63.70
2019-03-26T04:04:41.277Z,63.30
2019-03-26T04:05:42.275Z,63.30
2019-03-26T04:06:43.291Z,63.10
2019-03-26T04:07:44.295Z,63.10
2019-03-26T04:08:45.307Z,63.00
2019-03-26T04:09:46.332Z,62.90
2019-03-26T04:10:47.347Z,63.10
2019-03-26T04:11:48.359Z,62.90
2019-03-26T04:12:49.378Z,62.80
2019-03-26T04:13:50.386Z,62.90
2019-03-26T04:14:51.383Z,62.90
2019-03-26T04:15:52.387Z,62.80
2019-03-26T04:16:53.698Z,62.80
2019-03-26T04:17:54.712Z,62.90
2019-03-26T04:18:55.718Z,63.00
2019-03-26T04:19:56.720Z,62.60
2019-03-26T04:20:57.729Z,62.70
2019-03-26T04:21:58.736Z,62.60
2019-03-26T04:22:59.748Z,62.80
2019-03-26T04:24:00.752Z,62.80
2019-03-26T04:25:01.763Z,62.70
2019-03-26T04:26:02.764Z,62.80
2019-03-26T04:27:03.804Z,62.70
2019-03-26T04:28:04.817Z,63.00
2019-03-26T04:29:05.829Z,63.00
2019-03-26T04:30:07.932Z,63.30
2019-03-26T04:31:08.931Z,63.00
2019-03-26T04:32:09.945Z,62.90
2019-03-26T04:33:10.968Z,62.70
2019-03-26T04:34:11.970Z,63.10
2019-03-26T04:35:12.984Z,63.20
2019-03-26T04:36:25.572Z,63.10
2019-03-26T04:37:16.916Z,63.30
2019-03-26T04:38:17.932Z,63.10
2019-03-26T04:39:18.936Z,63.30
2019-03-26T04:40:19.932Z,62.90
2019-03-26T04:41:20.947Z,62.70
2019-03-26T04:42:21.949Z,62.70
2019-03-26T04:43:22.969Z,62.80
2019-03-26T04:44:23.969Z,62.70
2019-03-26T04:45:24.977Z,62.90
2019-03-26T04:46:25.984Z,62.80
2019-03-26T04:47:26.997Z,62.70
2019-03-26T04:48:28.004Z,62.70
2019-03-26T04:49:29.043Z,62.70
2019-03-26T04:50:30.043Z,63.00
2019-03-26T04:51:31.053Z,63.00
2019-03-26T04:52:32.068Z,62.90
2019-03-26T04:53:34.269Z,62.80
2019-03-26T04:54:35.508Z,62.70
2019-03-26T04:55:36.522Z,62.70
2019-03-26T04:56:37.536Z,62.90
2019-03-26T04:57:38.545Z,62.60
2019-03-26T04:58:39.577Z,62.70
2019-03-26T04:59:40.609Z,62.70
2019-03-26T05:00:41.629Z,62.70
2019-03-26T05:01:42.628Z,62.70
2019-03-26T05:02:43.750Z,62.80
2019-03-26T05:03:44.837Z,62.90
2019-03-26T05:04:45.865Z,63.00
2019-03-26T05:05:46.877Z,63.10
2019-03-26T05:06:47.881Z,63.10
2019-03-26T05:07:48.889Z,63.20
2019-03-26T05:08:49.908Z,63.40
2019-03-26T05:09:50.919Z,63.50
2019-03-26T05:10:51.921Z,63.60
2019-03-26T05:11:52.936Z,63.60
2019-03-26T05:12:53.941Z,63.60
2019-03-26T05:13:54.956Z,63.20
2019-03-26T05:14:55.968Z,63.30
2019-03-26T05:15:56.971Z,63.40
2019-03-26T05:16:57.980Z,63.40
2019-03-26T05:17:58.984Z,63.30
2019-03-26T05:19:00.004Z,63.20
2019-03-26T05:20:01.022Z,63.40
2019-03-26T05:21:02.315Z,63.50
2019-03-26T05:22:03.329Z,63.60
2019-03-26T05:23:04.330Z,63.70
2019-03-26T05:24:05.350Z,63.70
2019-03-26T05:25:06.660Z,63.70
2019-03-26T05:26:07.673Z,64.00
2019-03-26T05:27:08.679Z,64.00
2019-03-26T05:28:09.689Z,64.00
2019-03-26T05:29:10.931Z,63.60
2019-03-26T05:30:13.138Z,63.50
2019-03-26T05:31:14.148Z,63.60
2019-03-26T05:32:15.404Z,63.80
2019-03-26T05:33:16.420Z,63.70
2019-03-26T05:34:17.438Z,63.70
2019-03-26T05:35:18.446Z,63.50
2019-03-26T05:36:19.467Z,63.40
2019-03-26T05:37:20.474Z,63.30
2019-03-26T05:38:21.482Z,63.50
2019-03-26T05:39:22.723Z,63.50
2019-03-26T05:40:23.736Z,63.50
2019-03-26T05:41:24.744Z,63.50
2019-03-26T05:42:25.755Z,63.70
2019-03-26T05:43:26.751Z,63.40
2019-03-26T05:44:27.766Z,63.20
2019-03-26T05:45:28.794Z,63.30
2019-03-26T05:46:29.804Z,64.10
2019-03-26T05:47:30.808Z,63.30
2019-03-26T05:48:31.808Z,63.10
2019-03-26T05:49:32.828Z,62.90
2019-03-26T05:50:33.833Z,62.90
2019-03-26T05:51:34.844Z,63.00
2019-03-26T05:52:36.455Z,63.00
2019-03-26T05:53:37.457Z,62.90
2019-03-26T05:54:38.463Z,63.00
2019-03-26T05:55:39.589Z,63.10
2019-03-26T05:56:40.687Z,63.10
2019-03-26T05:57:41.691Z,63.30
2019-03-26T05:58:42.700Z,63.20
2019-03-26T05:59:43.729Z,63.30
2019-03-26T06:00:44.751Z,63.20
2019-03-26T06:01:45.755Z,63.30
2019-03-26T06:02:46.766Z,63.50
2019-03-26T06:03:47.764Z,63.60
2019-03-26T06:04:48.877Z,63.50
2019-03-26T06:05:49.890Z,63.30
2019-03-26T06:07:03.945Z,63.90
2019-03-26T06:07:54.132Z,63.10
2019-03-26T06:08:55.141Z,63.10
2019-03-26T06:09:56.158Z,63.00
2019-03-26T06:10:57.175Z,63.30
2019-03-26T06:11:58.232Z,63.10
2019-03-26T06:12:59.227Z,63.50
2019-03-26T06:14:00.232Z,63.80
2019-03-26T06:15:01.246Z,63.30
2019-03-26T06:16:02.261Z,62.90
2019-03-26T06:17:03.272Z,63.40
2019-03-26T06:18:04.289Z,62.80
2019-03-26T06:19:05.293Z,62.90
2019-03-26T06:20:08.615Z,62.90
2019-03-26T06:21:09.619Z,62.80
2019-03-26T06:22:10.647Z,62.80
2019-03-26T06:23:11.648Z,62.90
2019-03-26T06:24:12.661Z,63.00
2019-03-26T06:25:13.677Z,63.00
2019-03-26T06:26:14.931Z,62.90
2019-03-26T06:27:15.941Z,62.60
2019-03-26T06:28:16.958Z,62.80
2019-03-26T06:29:17.953Z,62.80
2019-03-26T06:30:19.065Z,62.90
2019-03-26T06:31:20.060Z,62.90
2019-03-26T06:32:21.063Z,62.80
2019-03-26T06:33:22.068Z,63.00
2019-03-26T06:34:23.071Z,63.20
2019-03-26T06:35:24.080Z,63.20
2019-03-26T06:36:25.085Z,63.10
2019-03-26T06:37:26.090Z,63.10
2019-03-26T06:38:27.196Z,62.90
2019-03-26T06:39:28.356Z,63.00
2019-03-26T06:40:29.360Z,63.80
2019-03-26T06:41:30.367Z,63.20
2019-03-26T06:42:31.377Z,63.20
2019-03-26T06:43:32.381Z,63.30
2019-03-26T06:44:33.401Z,63.20
2019-03-26T06:45:34.412Z,63.30
2019-03-26T06:46:35.422Z,63.70
2019-03-26T06:47:36.674Z,63.40
2019-03-26T06:48:37.681Z,63.60
2019-03-26T06:49:38.703Z,63.60
2019-03-26T06:50:39.718Z,63.50
2019-03-26T06:51:40.745Z,63.30
2019-03-26T06:52:41.748Z,63.40
2019-03-26T06:53:42.756Z,63.00
2019-03-26T06:54:43.881Z,63.00
2019-03-26T06:55:44.955Z,62.90
2019-03-26T06:56:45.968Z,62.60
2019-03-26T06:57:46.985Z,62.60
2019-03-26T06:58:47.990Z,62.70
2019-03-26T06:59:49.020Z,62.60
2019-03-26T07:00:50.141Z,62.70
2019-03-26T07:01:51.138Z,63.00
2019-03-26T07:02:52.147Z,64.10
2019-03-26T07:03:53.153Z,63.30
2019-03-26T07:04:54.164Z,63.60
2019-03-26T07:05:55.175Z,62.90
2019-03-26T07:06:57.872Z,63.00
2019-03-26T07:07:59.393Z,62.90
2019-03-26T07:09:00.424Z,62.60
2019-03-26T07:10:03.747Z,62.50
2019-03-26T07:11:04.772Z,62.50
2019-03-26T07:12:07.785Z,62.50
2019-03-26T07:13:08.734Z,62.50
2019-03-26T07:14:09.741Z,62.30
2019-03-26T07:15:10.896Z,61.90
2019-03-26T07:16:11.889Z,62.30
2019-03-26T07:17:12.900Z,62.50
2019-03-26T07:18:13.904Z,62.20
2019-03-26T07:19:14.903Z,62.20
2019-03-26T07:20:16.022Z,62.50
2019-03-26T07:21:17.033Z,62.60
2019-03-26T07:22:18.069Z,62.90
2019-03-26T07:23:19.072Z,63.10
2019-03-26T07:24:20.088Z,63.20
2019-03-26T07:25:21.221Z,63.30
2019-03-26T07:26:22.223Z,63.40
2019-03-26T07:27:23.408Z,63.60
2019-03-26T07:28:24.464Z,63.60
2019-03-26T07:29:25.468Z,63.60
2019-03-26T07:30:37.728Z,64.90
2019-03-26T07:31:38.732Z,64.00
2019-03-26T07:32:39.765Z,64.10
2019-03-26T07:33:40.841Z,64.40
2019-03-26T07:34:41.852Z,64.70
2019-03-26T07:35:42.906Z,64.90
2019-03-26T07:36:43.904Z,64.80
2019-03-26T07:37:45.886Z,64.50
2019-03-26T07:38:47.364Z,64.70
2019-03-26T07:39:48.446Z,64.60
2019-03-26T07:40:49.568Z,64.70
2019-03-26T07:41:50.581Z,64.60
2019-03-26T07:42:51.589Z,64.50
2019-03-26T07:43:52.625Z,64.80
2019-03-26T07:44:53.641Z,64.50
2019-03-26T07:45:54.652Z,64.60
2019-03-26T07:46:55.659Z,64.50
2019-03-26T07:47:56.767Z,64.20
2019-03-26T07:48:57.769Z,64.30
2019-03-26T07:49:58.776Z,64.50
2019-03-26T07:50:59.791Z,64.30
2019-03-26T07:52:01.067Z,63.90
2019-03-26T07:53:02.074Z,63.80
2019-03-26T07:54:03.091Z,63.40
2019-03-26T07:55:06.108Z,63.20
2019-03-26T07:56:07.127Z,63.30
2019-03-26T07:57:08.131Z,62.90
2019-03-26T07:58:09.139Z,62.90
2019-03-26T07:59:10.149Z,62.50
2019-03-26T08:00:11.456Z,62.50
2019-03-26T08:01:12.619Z,62.60
2019-03-26T08:02:13.681Z,62.60
2019-03-26T08:03:14.740Z,62.80
2019-03-26T08:04:15.775Z,62.90
2019-03-26T08:05:29.037Z,63.00
2019-03-26T08:06:19.701Z,63.10
2019-03-26T08:07:20.792Z,63.00
2019-03-26T08:08:21.815Z,61.90
2019-03-26T08:09:22.978Z,61.90
2019-03-26T08:10:24.140Z,61.90
2019-03-26T08:11:25.171Z,61.90
2019-03-26T08:12:26.204Z,62.00
2019-03-26T08:13:27.253Z,62.00
2019-03-26T08:14:28.344Z,62.00
2019-03-26T08:15:29.376Z,62.00
2019-03-26T08:16:30.398Z,62.10
2019-03-26T08:17:31.486Z,62.10
2019-03-26T08:18:32.596Z,62.10
2019-03-26T08:19:33.672Z,61.10
2019-03-26T08:20:34.680Z,61.50
2019-03-26T08:21:35.683Z,62.00
2019-03-26T08:22:36.733Z,61.80
2019-03-26T08:23:38.540Z,62.00
2019-03-26T08:24:39.661Z,61.90
2019-03-26T08:25:40.917Z,62.00
2019-03-26T08:26:41.933Z,61.70
2019-03-26T08:27:42.945Z,61.50
2019-03-26T08:28:43.949Z,61.40
2019-03-26T08:29:44.977Z,61.20
2019-03-26T08:30:46.027Z,61.00
2019-03-26T08:31:47.035Z,61.10
2019-03-26T08:32:48.042Z,61.10
2019-03-26T08:33:49.087Z,61.20
2019-03-26T08:34:50.243Z,61.60
2019-03-26T08:35:51.551Z,61.00
2019-03-26T08:36:52.553Z,60.50
2019-03-26T08:37:53.560Z,60.20
2019-03-26T08:38:54.582Z,60.20
2019-03-26T08:39:55.588Z,60.10
2019-03-26T08:40:56.615Z,60.00
2019-03-26T08:41:57.637Z,59.90
2019-03-26T08:42:58.654Z,59.80
2019-03-26T08:43:59.647Z,59.90
2019-03-26T08:45:00.665Z,60.30
2019-03-26T08:46:01.781Z,59.20
2019-03-26T08:47:02.789Z,59.20
2019-03-26T08:48:03.888Z,59.10
2019-03-26T08:49:04.892Z,59.00
2019-03-26T08:50:07.097Z,59.00
2019-03-26T08:51:08.116Z,59.20
2019-03-26T08:52:09.132Z,59.40
2019-03-26T08:53:10.135Z,59.50
2019-03-26T08:54:11.149Z,59.60
2019-03-26T08:55:12.260Z,59.90
2019-03-26T08:56:13.274Z,60.10
2019-03-26T08:57:14.295Z,60.20
2019-03-26T08:58:15.313Z,60.00
2019-03-26T08:59:16.671Z,60.60
2019-03-26T09:00:17.987Z,60.40
2019-03-26T09:01:19.045Z,60.60
2019-03-26T09:02:20.219Z,60.30
2019-03-26T09:03:21.225Z,60.00
2019-03-26T09:04:22.233Z,59.70
2019-03-26T09:05:23.243Z,59.60
2019-03-26T09:06:24.272Z,59.60
2019-03-26T09:07:25.301Z,59.00
2019-03-26T09:08:26.306Z,58.80
2019-03-26T09:09:27.588Z,58.50
2019-03-26T09:10:28.631Z,58.00
2019-03-26T09:11:29.647Z,58.10
2019-03-26T09:12:30.661Z,57.90
2019-03-26T09:13:31.673Z,57.80
2019-03-26T09:14:32.797Z,57.80
2019-03-26T09:15:34.313Z,57.30
2019-03-26T09:16:35.333Z,57.40
2019-03-26T09:17:37.244Z,57.80
2019-03-26T09:18:38.249Z,57.90
2019-03-26T09:19:39.272Z,58.00
2019-03-26T09:20:40.621Z,58.20
2019-03-26T09:21:41.685Z,57.90
2019-03-26T09:22:42.689Z,57.70
2019-03-26T09:23:43.688Z,58.00
2019-03-26T09:24:44.697Z,57.40
2019-03-26T09:25:45.699Z,57.50
2019-03-26T09:26:46.721Z,57.50
2019-03-26T09:27:47.727Z,57.60
2019-03-26T09:28:48.744Z,57.70
2019-03-26T09:29:49.751Z,57.50
2019-03-26T09:30:50.755Z,57.70
2019-03-26T09:31:51.779Z,58.10
2019-03-26T09:32:52.783Z,58.00
2019-03-26T09:33:53.798Z,58.00
2019-03-26T09:34:54.833Z,58.10
2019-03-26T09:35:56.128Z,58.10
2019-03-26T09:36:57.156Z,57.80
2019-03-26T09:37:58.173Z,58.00
2019-03-26T09:38:59.177Z,58.00
2019-03-26T09:40:00.426Z,58.00
2019-03-26T09:41:01.625Z,58.00
2019-03-26T09:42:02.645Z,58.10
2019-03-26T09:43:03.659Z,57.50
2019-03-26T09:44:04.652Z,57.50
2019-03-26T09:45:07.252Z,57.30
2019-03-26T09:46:08.266Z,57.50
2019-03-26T09:47:16.200Z,57.80
2019-03-26T09:48:12.436Z,57.40
2019-03-26T09:49:13.437Z,57.00
2019-03-26T09:50:18.255Z,56.80
2019-03-26T09:51:19.257Z,56.80
2019-03-26T09:52:20.267Z,56.60
2019-03-26T09:53:21.268Z,56.50
2019-03-26T09:54:22.275Z,56.40
2019-03-26T09:55:23.279Z,56.50
2019-03-26T09:56:29.379Z,56.70
2019-03-26T09:57:27.208Z,56.50
2019-03-26T09:58:28.214Z,56.60
2019-03-26T09:59:29.220Z,56.70
2019-03-26T10:00:30.249Z,56.60
2019-03-26T10:01:31.243Z,56.60
2019-03-26T10:02:32.552Z,56.70
2019-03-26T10:03:33.556Z,56.70
2019-03-26T10:04:34.569Z,56.80
2019-03-26T10:05:35.576Z,56.90
2019-03-26T10:06:36.740Z,57.10
2019-03-26T10:07:37.760Z,56.80
2019-03-26T10:08:51.412Z,56.70
2019-03-26T10:09:41.683Z,56.80
2019-03-26T10:10:42.710Z,57.10
2019-03-26T10:11:43.716Z,57.10
2019-03-26T10:12:44.730Z,57.00
2019-03-26T10:13:45.744Z,57.10
2019-03-26T10:14:46.761Z,56.80
2019-03-26T10:15:47.805Z,56.80
2019-03-26T10:16:48.806Z,56.80
2019-03-26T10:17:50.124Z,56.80
2019-03-26T10:18:51.132Z,57.00
2019-03-26T10:19:52.132Z,57.10
2019-03-26T10:20:53.135Z,57.00
2019-03-26T10:21:54.676Z,56.90
2019-03-26T10:22:55.780Z,56.80
2019-03-26T10:23:56.787Z,57.00
2019-03-26T10:24:57.797Z,57.20
2019-03-26T10:25:58.920Z,57.30
2019-03-26T10:26:59.995Z,58.00
2019-03-26T10:28:01.073Z,57.00
2019-03-26T10:29:15.423Z,57.10
2019-03-26T10:30:08.888Z,57.10
2019-03-26T10:31:09.896Z,57.10
2019-03-26T10:32:10.916Z,57.10
2019-03-26T10:33:11.945Z,57.10
2019-03-26T10:34:13.056Z,57.30
2019-03-26T10:35:14.060Z,55.90
2019-03-26T10:36:15.071Z,56.10
2019-03-26T10:37:16.086Z,55.70
2019-03-26T10:38:17.108Z,55.30
2019-03-26T10:39:18.120Z,54.80
2019-03-26T10:40:22.936Z,54.70
2019-03-26T10:41:23.960Z,54.70
2019-03-26T10:42:24.964Z,54.80
2019-03-26T10:43:25.972Z,54.50
2019-03-26T10:44:26.980Z,54.40
2019-03-26T10:45:27.980Z,54.30
2019-03-26T10:46:29.264Z,54.10
2019-03-26T10:47:30.268Z,53.80
2019-03-26T10:48:31.960Z,53.70
2019-03-26T10:49:33.115Z,53.50
2019-03-26T10:50:34.123Z,53.80
2019-03-26T10:51:35.144Z,53.90
2019-03-26T10:52:36.156Z,54.00
2019-03-26T10:53:37.195Z,54.60
2019-03-26T10:54:38.208Z,53.50
2019-03-26T10:55:39.236Z,53.60
2019-03-26T10:56:40.288Z,52.70
2019-03-26T10:57:41.372Z,52.50
2019-03-26T10:58:42.462Z,51.40
2019-03-26T10:59:43.490Z,50.70
2019-03-26T11:00:44.503Z,50.60
2019-03-26T11:01:45.511Z,49.00
2019-03-26T11:02:46.684Z,48.20
2019-03-26T11:03:47.758Z,47.70
2019-03-26T11:04:49.144Z,48.80
2019-03-26T11:05:50.251Z,49.00
2019-03-26T11:06:51.271Z,48.80
2019-03-26T11:07:52.280Z,48.70
2019-03-26T11:08:53.310Z,49.40
2019-03-26T11:09:54.321Z,49.60
2019-03-26T11:10:55.439Z,49.60
2019-03-26T11:11:56.449Z,49.90
2019-03-26T11:12:57.502Z,49.70
2019-03-26T11:13:58.903Z,49.70
2019-03-26T11:15:00.381Z,49.70
2019-03-26T11:16:02.010Z,49.10
2019-03-26T11:17:03.127Z,48.80
2019-03-26T11:18:04.180Z,49.60
2019-03-26T11:19:05.207Z,49.30
2019-03-26T11:20:08.030Z,49.60
2019-03-26T11:21:09.041Z,49.70
2019-03-26T11:22:10.309Z,49.60
2019-03-26T11:23:11.564Z,49.70
2019-03-26T11:24:12.584Z,48.70
2019-03-26T11:25:14.090Z,47.70
2019-03-26T11:26:15.101Z,48.10
2019-03-26T11:27:16.120Z,48.40
2019-03-26T11:28:17.121Z,48.70
2019-03-26T11:29:18.142Z,48.90
2019-03-26T11:30:19.174Z,49.40
2019-03-26T11:31:20.176Z,49.20
2019-03-26T11:32:21.185Z,48.70
2019-03-26T11:33:22.204Z,48.90
2019-03-26T11:34:23.215Z,49.00
2019-03-26T11:35:24.237Z,49.30
2019-03-26T11:36:25.276Z,49.60
2019-03-26T11:37:26.321Z,49.60
2019-03-26T11:38:27.407Z,50.50
2019-03-26T11:39:32.989Z,50.20
2019-03-26T11:40:31.496Z,49.70
2019-03-26T11:41:32.503Z,49.00
2019-03-26T11:42:33.520Z,48.00
2019-03-26T11:43:34.533Z,46.90
2019-03-26T11:44:35.568Z,47.00
2019-03-26T11:45:36.573Z,46.70
2019-03-26T11:46:37.573Z,46.70
2019-03-26T11:47:38.584Z,47.40
2019-03-26T11:48:39.604Z,47.20
2019-03-26T11:49:40.632Z,47.70
2019-03-26T11:50:41.643Z,47.10
2019-03-26T11:51:43.356Z,46.60
2019-03-26T11:52:44.360Z,47.20
2019-03-26T11:53:45.385Z,48.10
2019-03-26T11:54:46.398Z,47.10
2019-03-26T11:55:47.409Z,47.00
2019-03-26T11:56:48.413Z,47.20
2019-03-26T11:57:49.419Z,47.40
2019-03-26T11:58:50.457Z,47.70
2019-03-26T11:59:51.457Z,48.40
2019-03-26T12:00:52.475Z,47.70
2019-03-26T12:01:53.575Z,47.40
2019-03-26T12:02:54.577Z,46.90
2019-03-26T12:03:55.597Z,47.20
2019-03-26T12:04:56.616Z,46.50
2019-03-26T12:05:57.621Z,46.60
2019-03-26T12:06:58.628Z,46.90
2019-03-26T12:07:59.627Z,47.20
2019-03-26T12:09:00.659Z,47.00
2019-03-26T12:10:04.776Z,47.50
2019-03-26T12:11:05.851Z,47.20
2019-03-26T12:12:06.862Z,46.80
2019-03-26T12:13:07.877Z,46.40
2019-03-26T12:14:08.888Z,45.60
2019-03-26T12:15:10.495Z,45.50
2019-03-26T12:16:11.505Z,45.90
2019-03-26T12:17:14.931Z,46.10
2019-03-26T12:18:15.529Z,45.80
2019-03-26T12:19:16.548Z,45.80
2019-03-26T12:20:17.556Z,45.90
2019-03-26T12:21:18.558Z,45.20
2019-03-26T12:22:19.561Z,44.60
2019-03-26T12:23:20.564Z,44.10
2019-03-26T12:24:21.574Z,44.30
2019-03-26T12:25:22.585Z,43.30
2019-03-26T12:26:23.602Z,44.80
2019-03-26T12:27:24.612Z,43.60
2019-03-26T12:28:25.710Z,41.80
2019-03-26T12:29:26.726Z,41.80
2019-03-26T12:30:32.754Z,42.00
2019-03-26T12:31:33.756Z,42.60
2019-03-26T12:32:34.768Z,42.00
2019-03-26T12:33:36.019Z,42.70
2019-03-26T12:34:37.355Z,42.80
2019-03-26T12:35:38.368Z,42.10
2019-03-26T12:36:40.420Z,42.10
2019-03-26T12:37:41.880Z,41.40
2019-03-26T12:38:42.889Z,41.60
2019-03-26T12:39:44.388Z,41.90
2019-03-26T12:40:46.041Z,42.10
2019-03-26T12:41:47.055Z,42.00
2019-03-26T12:42:48.076Z,41.30
2019-03-26T12:43:49.073Z,41.40
2019-03-26T12:44:50.088Z,42.20
2019-03-26T12:45:51.097Z,42.50
2019-03-26T12:46:52.095Z,42.90
2019-03-26T12:47:53.105Z,43.20
2019-03-26T12:48:54.109Z,43.50
2019-03-26T12:49:55.127Z,43.50
2019-03-26T12:50:56.128Z,43.80
2019-03-26T12:51:57.143Z,44.00
2019-03-26T12:52:58.139Z,44.10
2019-03-26T12:53:59.152Z,43.80
2019-03-26T12:55:00.426Z,44.30
2019-03-26T12:56:01.639Z,44.10
2019-03-26T12:57:02.636Z,44.70
2019-03-26T12:58:03.644Z,44.20
2019-03-26T12:59:04.653Z,44.00
2019-03-26T13:00:07.323Z,44.90
2019-03-26T13:01:08.349Z,44.50
2019-03-26T13:02:09.352Z,44.20
2019-03-26T13:03:10.720Z,43.90
2019-03-26T13:04:14.128Z,43.70
2019-03-26T13:05:14.661Z,43.70
2019-03-26T13:06:15.664Z,43.60
2019-03-26T13:07:16.876Z,43.60
2019-03-26T13:08:17.893Z,43.50